sensor_id;sensor_type;location;lat;lon;timestamp;P1;durP1;ratioP1;P2;durP2;ratioP2
10050;SDS011;5065;46.942;7.432;2024-03-17T00:01:11;3.35;;;2.13;;
10050;SDS011;5065;46.942;7.432;2024-03-17T00:03:38;3.67;;;2.13;;
10050;SDS011;5065;46.942;7.432;2024-03-17T00:06:06;2.40;;;1.80;;
10050;SDS011;5065;46.942;7.432;2024-03-17T00:08:33;2.90;;;1.85;;
10050;SDS011;5065;46.942;7.432;2024-03-17T00:10:59;6.18;;;2.30;;
10050;SDS011;5065;46.942;7.432;2024-03-17T00:13:26;3.25;;;2.17;;
10050;SDS011;5065;46.942;7.432;2024-03-17T00:15:52;2.38;;;1.90;;
10050;SDS011;5065;46.942;7.432;2024-03-17T00:18:20;3.88;;;1.77;;
10050;SDS011;5065;46.942;7.432;2024-03-17T00:20:47;4.10;;;2.08;;
10050;SDS011;5065;46.942;7.432;2024-03-17T00:23:14;2.58;;;1.73;;
10050;SDS011;5065;46.942;7.432;2024-03-17T00:25:41;2.97;;;1.88;;
10050;SDS011;5065;46.942;7.432;2024-03-17T00:28:07;3.50;;;1.70;;
10050;SDS011;5065;46.942;7.432;2024-03-17T00:30:36;5.10;;;1.80;;
10050;SDS011;5065;46.942;7.432;2024-03-17T00:33:03;1.98;;;1.55;;
10050;SDS011;5065;46.942;7.432;2024-03-17T00:35:30;3.28;;;1.85;;
10050;SDS011;5065;46.942;7.432;2024-03-17T00:37:56;3.47;;;2.00;;
10050;SDS011;5065;46.942;7.432;2024-03-17T00:40:26;2.70;;;1.77;;
10050;SDS011;5065;46.942;7.432;2024-03-17T00:42:53;4.22;;;2.30;;
10050;SDS011;5065;46.942;7.432;2024-03-17T00:45:20;2.20;;;1.63;;
10050;SDS011;5065;46.942;7.432;2024-03-17T00:47:46;2.73;;;1.90;;
10050;SDS011;5065;46.942;7.432;2024-03-17T00:50:13;4.22;;;1.95;;
10050;SDS011;5065;46.942;7.432;2024-03-17T00:52:39;4.32;;;1.80;;
10050;SDS011;5065;46.942;7.432;2024-03-17T00:55:07;3.97;;;1.95;;
10050;SDS011;5065;46.942;7.432;2024-03-17T00:57:36;2.55;;;1.98;;
10050;SDS011;5065;46.942;7.432;2024-03-17T01:00:04;2.47;;;1.67;;
10050;SDS011;5065;46.942;7.432;2024-03-17T01:02:31;3.55;;;1.85;;
10050;SDS011;5065;46.942;7.432;2024-03-17T01:04:58;3.67;;;1.98;;
10050;SDS011;5065;46.942;7.432;2024-03-17T01:07:24;3.33;;;1.70;;
10050;SDS011;5065;46.942;7.432;2024-03-17T01:09:51;2.35;;;1.42;;
10050;SDS011;5065;46.942;7.432;2024-03-17T01:12:17;3.42;;;1.70;;
10050;SDS011;5065;46.942;7.432;2024-03-17T01:14:46;3.60;;;1.80;;
10050;SDS011;5065;46.942;7.432;2024-03-17T01:17:12;2.90;;;1.67;;
10050;SDS011;5065;46.942;7.432;2024-03-17T01:19:39;2.30;;;1.55;;
10050;SDS011;5065;46.942;7.432;2024-03-17T01:22:05;4.63;;;1.80;;
10050;SDS011;5065;46.942;7.432;2024-03-17T01:24:32;3.17;;;2.05;;
10050;SDS011;5065;46.942;7.432;2024-03-17T01:26:59;2.97;;;1.55;;
10050;SDS011;5065;46.942;7.432;2024-03-17T01:29:27;3.45;;;1.70;;
10050;SDS011;5065;46.942;7.432;2024-03-17T01:31:54;3.90;;;1.52;;
10050;SDS011;5065;46.942;7.432;2024-03-17T01:34:22;3.42;;;1.73;;
10050;SDS011;5065;46.942;7.432;2024-03-17T01:36:48;2.60;;;1.63;;
10050;SDS011;5065;46.942;7.432;2024-03-17T01:39:15;3.63;;;1.65;;
10050;SDS011;5065;46.942;7.432;2024-03-17T01:41:43;2.22;;;1.63;;
10050;SDS011;5065;46.942;7.432;2024-03-17T01:44:16;2.67;;;1.75;;
10050;SDS011;5065;46.942;7.432;2024-03-17T01:46:48;2.90;;;2.08;;
10050;SDS011;5065;46.942;7.432;2024-03-17T01:49:17;3.20;;;2.00;;
10050;SDS011;5065;46.942;7.432;2024-03-17T01:51:44;3.42;;;1.85;;
10050;SDS011;5065;46.942;7.432;2024-03-17T01:54:12;2.13;;;1.73;;
10050;SDS011;5065;46.942;7.432;2024-03-17T01:56:39;3.15;;;1.90;;
10050;SDS011;5065;46.942;7.432;2024-03-17T01:59:07;3.10;;;1.90;;
10050;SDS011;5065;46.942;7.432;2024-03-17T02:01:34;2.97;;;2.17;;
10050;SDS011;5065;46.942;7.432;2024-03-17T02:04:01;4.20;;;1.70;;
10050;SDS011;5065;46.942;7.432;2024-03-17T02:06:30;3.92;;;1.83;;
10050;SDS011;5065;46.942;7.432;2024-03-17T02:08:57;3.87;;;1.80;;
10050;SDS011;5065;46.942;7.432;2024-03-17T02:11:24;4.47;;;1.75;;
10050;SDS011;5065;46.942;7.432;2024-03-17T02:13:53;3.20;;;1.80;;
10050;SDS011;5065;46.942;7.432;2024-03-17T02:16:20;4.23;;;1.73;;
10050;SDS011;5065;46.942;7.432;2024-03-17T02:18:48;4.15;;;1.80;;
10050;SDS011;5065;46.942;7.432;2024-03-17T02:21:15;4.13;;;1.90;;
10050;SDS011;5065;46.942;7.432;2024-03-17T02:23:43;3.37;;;1.73;;
10050;SDS011;5065;46.942;7.432;2024-03-17T02:26:10;2.78;;;1.70;;
10050;SDS011;5065;46.942;7.432;2024-03-17T02:28:40;2.60;;;1.67;;
10050;SDS011;5065;46.942;7.432;2024-03-17T02:31:07;2.75;;;1.65;;
10050;SDS011;5065;46.942;7.432;2024-03-17T02:33:35;2.80;;;1.40;;
10050;SDS011;5065;46.942;7.432;2024-03-17T02:36:02;2.10;;;1.60;;
10050;SDS011;5065;46.942;7.432;2024-03-17T02:38:32;2.42;;;1.65;;
10050;SDS011;5065;46.942;7.432;2024-03-17T02:41:19;2.83;;;1.50;;
10050;SDS011;5065;46.942;7.432;2024-03-17T02:43:46;3.47;;;1.40;;
10050;SDS011;5065;46.942;7.432;2024-03-17T02:46:14;1.63;;;1.10;;
10050;SDS011;5065;46.942;7.432;2024-03-17T02:48:43;2.65;;;1.15;;
10050;SDS011;5065;46.942;7.432;2024-03-17T02:51:12;2.28;;;1.50;;
10050;SDS011;5065;46.942;7.432;2024-03-17T02:53:40;2.22;;;1.42;;
10050;SDS011;5065;46.942;7.432;2024-03-17T02:56:07;3.47;;;1.48;;
10050;SDS011;5065;46.942;7.432;2024-03-17T02:58:36;1.85;;;1.30;;
10050;SDS011;5065;46.942;7.432;2024-03-17T03:01:05;2.47;;;1.50;;
10050;SDS011;5065;46.942;7.432;2024-03-17T03:03:33;4.20;;;2.17;;
10050;SDS011;5065;46.942;7.432;2024-03-17T03:06:00;2.77;;;1.50;;
10050;SDS011;5065;46.942;7.432;2024-03-17T03:10:56;2.00;;;1.20;;
10050;SDS011;5065;46.942;7.432;2024-03-17T03:13:23;2.67;;;1.70;;
10050;SDS011;5065;46.942;7.432;2024-03-17T03:15:52;3.05;;;1.90;;
10050;SDS011;5065;46.942;7.432;2024-03-17T03:18:19;4.43;;;2.05;;
10050;SDS011;5065;46.942;7.432;2024-03-17T03:20:49;1.70;;;1.60;;
10050;SDS011;5065;46.942;7.432;2024-03-17T03:23:17;2.50;;;1.60;;
10050;SDS011;5065;46.942;7.432;2024-03-17T03:25:45;1.90;;;1.40;;
10050;SDS011;5065;46.942;7.432;2024-03-17T03:28:12;1.30;;;1.03;;
10050;SDS011;5065;46.942;7.432;2024-03-17T03:30:40;6.17;;;1.40;;
10050;SDS011;5065;46.942;7.432;2024-03-17T03:33:08;2.50;;;1.47;;
10050;SDS011;5065;46.942;7.432;2024-03-17T03:35:35;3.37;;;1.40;;
10050;SDS011;5065;46.942;7.432;2024-03-17T03:38:02;2.07;;;1.30;;
10050;SDS011;5065;46.942;7.432;2024-03-17T03:40:30;1.80;;;1.43;;
10050;SDS011;5065;46.942;7.432;2024-03-17T03:42:58;2.10;;;1.27;;
10050;SDS011;5065;46.942;7.432;2024-03-17T03:45:25;2.77;;;1.67;;
10050;SDS011;5065;46.942;7.432;2024-03-17T03:47:52;1.90;;;1.23;;
10050;SDS011;5065;46.942;7.432;2024-03-17T03:50:21;2.20;;;1.40;;
10050;SDS011;5065;46.942;7.432;2024-03-17T03:52:49;2.47;;;1.60;;
10050;SDS011;5065;46.942;7.432;2024-03-17T03:55:16;2.70;;;1.73;;
10050;SDS011;5065;46.942;7.432;2024-03-17T03:57:45;3.80;;;1.53;;
10050;SDS011;5065;46.942;7.432;2024-03-17T04:00:13;2.23;;;1.37;;
10050;SDS011;5065;46.942;7.432;2024-03-17T04:02:41;3.70;;;1.40;;
10050;SDS011;5065;46.942;7.432;2024-03-17T04:05:09;1.33;;;1.13;;
10050;SDS011;5065;46.942;7.432;2024-03-17T04:07:38;1.77;;;1.13;;
10050;SDS011;5065;46.942;7.432;2024-03-17T04:10:08;2.50;;;1.37;;
10050;SDS011;5065;46.942;7.432;2024-03-17T04:12:36;2.50;;;1.40;;
10050;SDS011;5065;46.942;7.432;2024-03-17T04:15:03;1.90;;;1.30;;
10050;SDS011;5065;46.942;7.432;2024-03-17T04:17:31;1.80;;;1.20;;
10050;SDS011;5065;46.942;7.432;2024-03-17T04:19:59;1.30;;;1.03;;
10050;SDS011;5065;46.942;7.432;2024-03-17T04:22:26;1.60;;;1.20;;
10050;SDS011;5065;46.942;7.432;2024-03-17T04:24:55;2.77;;;1.43;;
10050;SDS011;5065;46.942;7.432;2024-03-17T04:27:22;2.30;;;1.53;;
10050;SDS011;5065;46.942;7.432;2024-03-17T04:29:49;1.50;;;1.10;;
10050;SDS011;5065;46.942;7.432;2024-03-17T04:32:17;2.43;;;1.40;;
10050;SDS011;5065;46.942;7.432;2024-03-17T04:34:44;1.23;;;0.80;;
10050;SDS011;5065;46.942;7.432;2024-03-17T04:37:12;2.63;;;1.50;;
10050;SDS011;5065;46.942;7.432;2024-03-17T04:39:39;1.70;;;0.90;;
10050;SDS011;5065;46.942;7.432;2024-03-17T04:42:09;0.60;;;0.60;;
10050;SDS011;5065;46.942;7.432;2024-03-17T04:44:37;2.43;;;1.03;;
10050;SDS011;5065;46.942;7.432;2024-03-17T04:47:06;3.30;;;1.00;;
10050;SDS011;5065;46.942;7.432;2024-03-17T04:49:35;1.17;;;1.00;;
10050;SDS011;5065;46.942;7.432;2024-03-17T04:52:02;2.03;;;1.07;;
10050;SDS011;5065;46.942;7.432;2024-03-17T04:54:30;0.90;;;0.80;;
10050;SDS011;5065;46.942;7.432;2024-03-17T04:56:57;1.00;;;0.90;;
10050;SDS011;5065;46.942;7.432;2024-03-17T04:59:25;1.50;;;0.90;;
10050;SDS011;5065;46.942;7.432;2024-03-17T05:01:52;2.50;;;1.10;;
10050;SDS011;5065;46.942;7.432;2024-03-17T05:04:20;2.73;;;1.23;;
10050;SDS011;5065;46.942;7.432;2024-03-17T05:06:48;2.20;;;0.80;;
10050;SDS011;5065;46.942;7.432;2024-03-17T05:09:15;1.37;;;1.20;;
10050;SDS011;5065;46.942;7.432;2024-03-17T05:11:43;1.27;;;1.17;;
10050;SDS011;5065;46.942;7.432;2024-03-17T05:14:10;0.97;;;0.80;;
10050;SDS011;5065;46.942;7.432;2024-03-17T05:16:39;1.33;;;1.20;;
10050;SDS011;5065;46.942;7.432;2024-03-17T05:19:06;1.20;;;1.10;;
10050;SDS011;5065;46.942;7.432;2024-03-17T05:21:34;1.87;;;1.07;;
10050;SDS011;5065;46.942;7.432;2024-03-17T05:24:01;2.30;;;1.10;;
10050;SDS011;5065;46.942;7.432;2024-03-17T05:26:28;4.23;;;1.27;;
10050;SDS011;5065;46.942;7.432;2024-03-17T05:28:55;2.13;;;0.93;;
10050;SDS011;5065;46.942;7.432;2024-03-17T05:31:23;2.37;;;1.07;;
10050;SDS011;5065;46.942;7.432;2024-03-17T05:33:53;2.93;;;1.10;;
10050;SDS011;5065;46.942;7.432;2024-03-17T05:36:21;0.97;;;0.87;;
10050;SDS011;5065;46.942;7.432;2024-03-17T05:38:50;2.17;;;1.10;;
10050;SDS011;5065;46.942;7.432;2024-03-17T05:41:17;1.30;;;1.00;;
10050;SDS011;5065;46.942;7.432;2024-03-17T05:43:44;1.17;;;0.90;;
10050;SDS011;5065;46.942;7.432;2024-03-17T05:46:14;1.00;;;0.83;;
10050;SDS011;5065;46.942;7.432;2024-03-17T05:48:41;1.23;;;0.80;;
10050;SDS011;5065;46.942;7.432;2024-03-17T05:51:11;1.23;;;1.07;;
10050;SDS011;5065;46.942;7.432;2024-03-17T05:53:41;1.20;;;1.00;;
10050;SDS011;5065;46.942;7.432;2024-03-17T05:56:09;1.53;;;0.90;;
10050;SDS011;5065;46.942;7.432;2024-03-17T05:58:37;0.60;;;0.60;;
10050;SDS011;5065;46.942;7.432;2024-03-17T06:01:05;1.50;;;1.17;;
10050;SDS011;5065;46.942;7.432;2024-03-17T06:03:33;0.90;;;0.90;;
10050;SDS011;5065;46.942;7.432;2024-03-17T06:06:01;1.00;;;0.80;;
10050;SDS011;5065;46.942;7.432;2024-03-17T06:08:30;3.60;;;1.30;;
10050;SDS011;5065;46.942;7.432;2024-03-17T06:10:57;1.13;;;1.00;;
10050;SDS011;5065;46.942;7.432;2024-03-17T06:13:25;1.20;;;1.10;;
10050;SDS011;5065;46.942;7.432;2024-03-17T06:15:53;1.20;;;1.10;;
10050;SDS011;5065;46.942;7.432;2024-03-17T06:18:25;2.60;;;1.20;;
10050;SDS011;5065;46.942;7.432;2024-03-17T06:20:53;1.17;;;1.00;;
10050;SDS011;5065;46.942;7.432;2024-03-17T06:23:23;0.80;;;0.80;;
10050;SDS011;5065;46.942;7.432;2024-03-17T06:25:53;4.40;;;1.53;;
10050;SDS011;5065;46.942;7.432;2024-03-17T06:28:21;1.90;;;0.73;;
10050;SDS011;5065;46.942;7.432;2024-03-17T06:30:56;2.50;;;1.37;;
10050;SDS011;5065;46.942;7.432;2024-03-17T06:33:25;1.47;;;0.80;;
10050;SDS011;5065;46.942;7.432;2024-03-17T06:35:53;0.63;;;0.60;;
10050;SDS011;5065;46.942;7.432;2024-03-17T06:38:21;2.17;;;1.17;;
10050;SDS011;5065;46.942;7.432;2024-03-17T06:40:49;0.83;;;0.80;;
10050;SDS011;5065;46.942;7.432;2024-03-17T06:43:18;1.00;;;0.97;;
10050;SDS011;5065;46.942;7.432;2024-03-17T06:45:53;1.13;;;1.03;;
10050;SDS011;5065;46.942;7.432;2024-03-17T06:48:21;2.10;;;1.63;;
10050;SDS011;5065;46.942;7.432;2024-03-17T06:50:49;1.13;;;1.00;;
10050;SDS011;5065;46.942;7.432;2024-03-17T06:53:17;1.43;;;1.00;;
10050;SDS011;5065;46.942;7.432;2024-03-17T06:55:51;2.57;;;0.80;;
10050;SDS011;5065;46.942;7.432;2024-03-17T06:58:21;3.33;;;1.03;;
10050;SDS011;5065;46.942;7.432;2024-03-17T07:00:52;1.63;;;1.13;;
10050;SDS011;5065;46.942;7.432;2024-03-17T07:03:20;3.17;;;1.20;;
10050;SDS011;5065;46.942;7.432;2024-03-17T07:05:52;0.77;;;0.70;;
10050;SDS011;5065;46.942;7.432;2024-03-17T07:08:20;1.97;;;1.00;;
10050;SDS011;5065;46.942;7.432;2024-03-17T07:10:57;0.97;;;0.67;;
10050;SDS011;5065;46.942;7.432;2024-03-17T07:13:27;4.37;;;1.57;;
10050;SDS011;5065;46.942;7.432;2024-03-17T07:15:55;2.97;;;1.33;;
10050;SDS011;5065;46.942;7.432;2024-03-17T07:18:24;1.07;;;0.97;;
10050;SDS011;5065;46.942;7.432;2024-03-17T07:20:52;1.97;;;1.13;;
10050;SDS011;5065;46.942;7.432;2024-03-17T07:23:19;3.43;;;1.00;;
10050;SDS011;5065;46.942;7.432;2024-03-17T07:25:53;1.17;;;1.07;;
10050;SDS011;5065;46.942;7.432;2024-03-17T07:28:21;0.60;;;0.60;;
10050;SDS011;5065;46.942;7.432;2024-03-17T07:30:50;2.80;;;1.03;;
10050;SDS011;5065;46.942;7.432;2024-03-17T07:33:18;3.10;;;1.30;;
10050;SDS011;5065;46.942;7.432;2024-03-17T07:35:49;1.00;;;0.90;;
10050;SDS011;5065;46.942;7.432;2024-03-17T07:38:17;1.40;;;0.90;;
10050;SDS011;5065;46.942;7.432;2024-03-17T07:40:45;4.27;;;1.30;;
10050;SDS011;5065;46.942;7.432;2024-03-17T07:43:23;1.20;;;0.97;;
10050;SDS011;5065;46.942;7.432;2024-03-17T07:45:58;2.27;;;0.93;;
10050;SDS011;5065;46.942;7.432;2024-03-17T07:48:26;3.23;;;1.13;;
10050;SDS011;5065;46.942;7.432;2024-03-17T07:50:54;1.07;;;1.03;;
10050;SDS011;5065;46.942;7.432;2024-03-17T07:53:21;1.33;;;0.90;;
10050;SDS011;5065;46.942;7.432;2024-03-17T07:55:56;1.70;;;1.10;;
10050;SDS011;5065;46.942;7.432;2024-03-17T07:58:24;2.03;;;1.40;;
10050;SDS011;5065;46.942;7.432;2024-03-17T08:00:56;1.23;;;0.90;;
10050;SDS011;5065;46.942;7.432;2024-03-17T08:03:26;3.13;;;1.13;;
10050;SDS011;5065;46.942;7.432;2024-03-17T08:05:53;1.10;;;1.00;;
10050;SDS011;5065;46.942;7.432;2024-03-17T08:08:21;1.47;;;1.00;;
10050;SDS011;5065;46.942;7.432;2024-03-17T08:10:47;1.73;;;1.40;;
10050;SDS011;5065;46.942;7.432;2024-03-17T08:13:15;1.83;;;1.17;;
10050;SDS011;5065;46.942;7.432;2024-03-17T08:15:42;0.70;;;0.63;;
10050;SDS011;5065;46.942;7.432;2024-03-17T08:18:10;6.93;;;0.97;;
10050;SDS011;5065;46.942;7.432;2024-03-17T08:20:37;0.87;;;0.60;;
10050;SDS011;5065;46.942;7.432;2024-03-17T08:23:06;2.60;;;1.00;;
10050;SDS011;5065;46.942;7.432;2024-03-17T08:25:33;2.70;;;0.93;;
10050;SDS011;5065;46.942;7.432;2024-03-17T08:28:01;1.53;;;0.97;;
10050;SDS011;5065;46.942;7.432;2024-03-17T08:30:29;1.47;;;1.00;;
10050;SDS011;5065;46.942;7.432;2024-03-17T08:32:56;0.87;;;0.87;;
10050;SDS011;5065;46.942;7.432;2024-03-17T08:35:25;3.17;;;0.90;;
10050;SDS011;5065;46.942;7.432;2024-03-17T08:37:52;3.50;;;1.00;;
10050;SDS011;5065;46.942;7.432;2024-03-17T08:40:23;1.60;;;1.20;;
10050;SDS011;5065;46.942;7.432;2024-03-17T08:42:50;0.70;;;0.70;;
10050;SDS011;5065;46.942;7.432;2024-03-17T08:45:18;3.10;;;0.93;;
10050;SDS011;5065;46.942;7.432;2024-03-17T08:47:45;0.70;;;0.70;;
10050;SDS011;5065;46.942;7.432;2024-03-17T08:50:17;1.00;;;0.77;;
10050;SDS011;5065;46.942;7.432;2024-03-17T08:52:45;1.47;;;1.10;;
10050;SDS011;5065;46.942;7.432;2024-03-17T08:55:12;0.93;;;0.80;;
10050;SDS011;5065;46.942;7.432;2024-03-17T08:57:40;1.30;;;0.90;;
10050;SDS011;5065;46.942;7.432;2024-03-17T09:00:08;1.37;;;0.90;;
10050;SDS011;5065;46.942;7.432;2024-03-17T09:02:35;2.83;;;1.57;;
10050;SDS011;5065;46.942;7.432;2024-03-17T09:05:03;0.70;;;0.67;;
10050;SDS011;5065;46.942;7.432;2024-03-17T09:07:30;0.80;;;0.80;;
10050;SDS011;5065;46.942;7.432;2024-03-17T09:09:59;1.33;;;0.87;;
10050;SDS011;5065;46.942;7.432;2024-03-17T09:12:26;1.80;;;0.80;;
10050;SDS011;5065;46.942;7.432;2024-03-17T09:14:53;6.93;;;0.90;;
10050;SDS011;5065;46.942;7.432;2024-03-17T09:17:21;1.73;;;1.10;;
10050;SDS011;5065;46.942;7.432;2024-03-17T09:19:48;2.53;;;0.97;;
10050;SDS011;5065;46.942;7.432;2024-03-17T09:22:15;1.77;;;1.20;;
10050;SDS011;5065;46.942;7.432;2024-03-17T09:24:42;1.13;;;1.03;;
10050;SDS011;5065;46.942;7.432;2024-03-17T09:27:11;1.00;;;0.90;;
10050;SDS011;5065;46.942;7.432;2024-03-17T09:29:45;1.43;;;1.30;;
10050;SDS011;5065;46.942;7.432;2024-03-17T09:32:12;6.10;;;1.03;;
10050;SDS011;5065;46.942;7.432;2024-03-17T09:34:43;2.00;;;1.20;;
10050;SDS011;5065;46.942;7.432;2024-03-17T09:37:13;2.30;;;1.10;;
10050;SDS011;5065;46.942;7.432;2024-03-17T09:39:41;1.60;;;1.20;;
10050;SDS011;5065;46.942;7.432;2024-03-17T09:42:15;3.17;;;1.37;;
10050;SDS011;5065;46.942;7.432;2024-03-17T09:44:45;2.00;;;1.03;;
10050;SDS011;5065;46.942;7.432;2024-03-17T09:47:14;1.43;;;1.10;;
10050;SDS011;5065;46.942;7.432;2024-03-17T09:49:45;2.30;;;1.07;;
10050;SDS011;5065;46.942;7.432;2024-03-17T09:52:14;1.27;;;0.80;;
10050;SDS011;5065;46.942;7.432;2024-03-17T09:54:50;1.83;;;1.10;;
10050;SDS011;5065;46.942;7.432;2024-03-17T09:57:24;0.97;;;0.93;;
10050;SDS011;5065;46.942;7.432;2024-03-17T09:59:51;1.30;;;0.90;;
10050;SDS011;5065;46.942;7.432;2024-03-17T10:02:20;1.20;;;1.10;;
10050;SDS011;5065;46.942;7.432;2024-03-17T10:04:48;1.23;;;1.00;;
10050;SDS011;5065;46.942;7.432;2024-03-17T10:07:15;2.73;;;1.10;;
10050;SDS011;5065;46.942;7.432;2024-03-17T10:09:42;2.40;;;1.00;;
10050;SDS011;5065;46.942;7.432;2024-03-17T10:12:27;3.93;;;0.63;;
10050;SDS011;5065;46.942;7.432;2024-03-17T10:14:58;1.80;;;0.83;;
10050;SDS011;5065;46.942;7.432;2024-03-17T10:17:29;1.20;;;0.80;;
10050;SDS011;5065;46.942;7.432;2024-03-17T10:20:13;1.23;;;0.67;;
10050;SDS011;5065;46.942;7.432;2024-03-17T10:23:00;2.33;;;0.63;;
10050;SDS011;5065;46.942;7.432;2024-03-17T10:25:29;2.87;;;1.00;;
10050;SDS011;5065;46.942;7.432;2024-03-17T10:27:58;1.20;;;0.70;;
10050;SDS011;5065;46.942;7.432;2024-03-17T10:47:50;2.17;;;0.90;;
10050;SDS011;5065;46.942;7.432;2024-03-17T10:50:18;1.40;;;0.90;;
10050;SDS011;5065;46.942;7.432;2024-03-17T10:52:48;2.43;;;1.23;;
10050;SDS011;5065;46.942;7.432;2024-03-17T10:55:20;1.90;;;1.27;;
10050;SDS011;5065;46.942;7.432;2024-03-17T10:57:50;2.88;;;1.20;;
10050;SDS011;5065;46.942;7.432;2024-03-17T11:00:20;1.80;;;0.80;;
10050;SDS011;5065;46.942;7.432;2024-03-17T11:02:48;3.50;;;1.20;;
10050;SDS011;5065;46.942;7.432;2024-03-17T11:05:18;1.23;;;0.97;;
10050;SDS011;5065;46.942;7.432;2024-03-17T11:07:47;3.50;;;1.20;;
10050;SDS011;5065;46.942;7.432;2024-03-17T11:10:17;2.03;;;0.80;;
10050;SDS011;5065;46.942;7.432;2024-03-17T11:12:48;2.30;;;0.90;;
10050;SDS011;5065;46.942;7.432;2024-03-17T11:15:37;3.80;;;1.07;;
10050;SDS011;5065;46.942;7.432;2024-03-17T11:20:57;1.90;;;0.87;;
10050;SDS011;5065;46.942;7.432;2024-03-17T11:23:27;0.80;;;0.60;;
10050;SDS011;5065;46.942;7.432;2024-03-17T11:25:54;2.47;;;0.77;;
10050;SDS011;5065;46.942;7.432;2024-03-17T11:34:06;1.80;;;1.30;;
10050;SDS011;5065;46.942;7.432;2024-03-17T11:36:51;1.63;;;1.00;;
10050;SDS011;5065;46.942;7.432;2024-03-17T11:39:19;1.23;;;0.80;;
10050;SDS011;5065;46.942;7.432;2024-03-17T11:41:48;1.20;;;1.10;;
10050;SDS011;5065;46.942;7.432;2024-03-17T11:44:25;1.80;;;1.20;;
10050;SDS011;5065;46.942;7.432;2024-03-17T11:46:54;2.20;;;1.00;;
10050;SDS011;5065;46.942;7.432;2024-03-17T11:49:23;5.70;;;1.57;;
10050;SDS011;5065;46.942;7.432;2024-03-17T11:51:51;1.00;;;0.90;;
10050;SDS011;5065;46.942;7.432;2024-03-17T11:54:20;1.47;;;1.10;;
10050;SDS011;5065;46.942;7.432;2024-03-17T11:56:49;2.07;;;1.00;;
10050;SDS011;5065;46.942;7.432;2024-03-17T11:59:17;4.00;;;1.00;;
10050;SDS011;5065;46.942;7.432;2024-03-17T12:01:44;2.40;;;0.80;;
10050;SDS011;5065;46.942;7.432;2024-03-17T12:04:14;2.80;;;1.20;;
10050;SDS011;5065;46.942;7.432;2024-03-17T12:06:44;1.93;;;1.10;;
10050;SDS011;5065;46.942;7.432;2024-03-17T12:09:16;3.93;;;1.13;;
10050;SDS011;5065;46.942;7.432;2024-03-17T12:11:45;2.07;;;0.87;;
10050;SDS011;5065;46.942;7.432;2024-03-17T12:14:15;2.17;;;1.17;;
10050;SDS011;5065;46.942;7.432;2024-03-17T12:16:47;0.90;;;0.90;;
10050;SDS011;5065;46.942;7.432;2024-03-17T12:19:16;4.03;;;1.43;;
10050;SDS011;5065;46.942;7.432;2024-03-17T12:21:43;3.47;;;1.43;;
10050;SDS011;5065;46.942;7.432;2024-03-17T12:24:14;3.73;;;1.27;;
10050;SDS011;5065;46.942;7.432;2024-03-17T12:26:41;2.17;;;1.10;;
10050;SDS011;5065;46.942;7.432;2024-03-17T12:29:23;2.63;;;1.30;;
10050;SDS011;5065;46.942;7.432;2024-03-17T12:31:51;2.37;;;1.30;;
10050;SDS011;5065;46.942;7.432;2024-03-17T12:34:20;1.60;;;1.30;;
10050;SDS011;5065;46.942;7.432;2024-03-17T12:36:46;1.67;;;0.90;;
10050;SDS011;5065;46.942;7.432;2024-03-17T12:39:17;1.73;;;1.07;;
10050;SDS011;5065;46.942;7.432;2024-03-17T12:41:45;2.67;;;0.93;;
10050;SDS011;5065;46.942;7.432;2024-03-17T12:44:27;1.63;;;1.00;;
10050;SDS011;5065;46.942;7.432;2024-03-17T12:46:56;6.97;;;1.53;;
10050;SDS011;5065;46.942;7.432;2024-03-17T12:49:27;5.97;;;1.50;;
10050;SDS011;5065;46.942;7.432;2024-03-17T12:51:54;2.77;;;0.90;;
10050;SDS011;5065;46.942;7.432;2024-03-17T12:54:22;2.10;;;0.93;;
10050;SDS011;5065;46.942;7.432;2024-03-17T12:56:50;2.03;;;1.10;;
10050;SDS011;5065;46.942;7.432;2024-03-17T12:59:39;2.73;;;1.30;;
10050;SDS011;5065;46.942;7.432;2024-03-17T13:02:33;1.50;;;1.20;;
10050;SDS011;5065;46.942;7.432;2024-03-17T13:07:49;3.70;;;1.50;;
10050;SDS011;5065;46.942;7.432;2024-03-17T13:10:17;3.07;;;0.90;;
10050;SDS011;5065;46.942;7.432;2024-03-17T13:12:45;2.60;;;1.10;;
10050;SDS011;5065;46.942;7.432;2024-03-17T13:15:13;2.60;;;1.13;;
10050;SDS011;5065;46.942;7.432;2024-03-17T13:17:42;2.23;;;0.93;;
10050;SDS011;5065;46.942;7.432;2024-03-17T13:20:12;1.07;;;0.73;;
10050;SDS011;5065;46.942;7.432;2024-03-17T13:22:42;2.43;;;0.93;;
10050;SDS011;5065;46.942;7.432;2024-03-17T13:25:14;2.50;;;1.10;;
10050;SDS011;5065;46.942;7.432;2024-03-17T13:27:46;4.33;;;1.40;;
10050;SDS011;5065;46.942;7.432;2024-03-17T13:30:15;4.03;;;1.40;;
10050;SDS011;5065;46.942;7.432;2024-03-17T13:32:43;1.60;;;1.13;;
10050;SDS011;5065;46.942;7.432;2024-03-17T13:35:14;2.03;;;1.30;;
10050;SDS011;5065;46.942;7.432;2024-03-17T13:37:44;1.43;;;1.10;;
10050;SDS011;5065;46.942;7.432;2024-03-17T13:40:13;3.27;;;1.53;;
10050;SDS011;5065;46.942;7.432;2024-03-17T13:42:41;2.43;;;1.23;;
10050;SDS011;5065;46.942;7.432;2024-03-17T13:45:10;1.90;;;0.73;;
10050;SDS011;5065;46.942;7.432;2024-03-17T13:47:38;1.20;;;1.00;;
10050;SDS011;5065;46.942;7.432;2024-03-17T13:50:06;2.00;;;1.00;;
10050;SDS011;5065;46.942;7.432;2024-03-17T13:52:38;0.73;;;0.73;;
10050;SDS011;5065;46.942;7.432;2024-03-17T13:55:07;1.43;;;0.87;;
10050;SDS011;5065;46.942;7.432;2024-03-17T13:57:40;2.50;;;0.77;;
10050;SDS011;5065;46.942;7.432;2024-03-17T14:00:08;1.57;;;1.10;;
10050;SDS011;5065;46.942;7.432;2024-03-17T14:02:40;1.63;;;0.90;;
10050;SDS011;5065;46.942;7.432;2024-03-17T14:05:08;2.10;;;0.93;;
10050;SDS011;5065;46.942;7.432;2024-03-17T14:07:38;9.03;;;1.07;;
10050;SDS011;5065;46.942;7.432;2024-03-17T14:10:07;3.43;;;0.80;;
10050;SDS011;5065;46.942;7.432;2024-03-17T14:12:36;1.83;;;1.20;;
10050;SDS011;5065;46.942;7.432;2024-03-17T14:15:04;2.03;;;1.23;;
10050;SDS011;5065;46.942;7.432;2024-03-17T14:17:32;2.13;;;0.97;;
10050;SDS011;5065;46.942;7.432;2024-03-17T14:20:00;5.83;;;2.57;;
10050;SDS011;5065;46.942;7.432;2024-03-17T14:22:27;2.90;;;1.27;;
10050;SDS011;5065;46.942;7.432;2024-03-17T14:24:54;1.07;;;0.80;;
10050;SDS011;5065;46.942;7.432;2024-03-17T14:27:23;1.57;;;0.87;;
10050;SDS011;5065;46.942;7.432;2024-03-17T14:29:52;0.83;;;0.60;;
10050;SDS011;5065;46.942;7.432;2024-03-17T14:32:19;1.70;;;0.80;;
10050;SDS011;5065;46.942;7.432;2024-03-17T14:34:46;2.27;;;0.77;;
10050;SDS011;5065;46.942;7.432;2024-03-17T14:37:14;2.07;;;0.80;;
10050;SDS011;5065;46.942;7.432;2024-03-17T14:39:41;8.50;;;1.10;;
10050;SDS011;5065;46.942;7.432;2024-03-17T14:42:09;3.03;;;0.93;;
10050;SDS011;5065;46.942;7.432;2024-03-17T14:44:38;1.93;;;0.60;;
10050;SDS011;5065;46.942;7.432;2024-03-17T14:47:05;1.07;;;0.60;;
10050;SDS011;5065;46.942;7.432;2024-03-17T14:49:32;1.77;;;1.00;;
10050;SDS011;5065;46.942;7.432;2024-03-17T14:52:00;2.00;;;0.83;;
10050;SDS011;5065;46.942;7.432;2024-03-17T14:54:27;1.00;;;0.90;;
10050;SDS011;5065;46.942;7.432;2024-03-17T14:56:54;1.53;;;0.80;;
10050;SDS011;5065;46.942;7.432;2024-03-17T14:59:22;2.20;;;1.13;;
10050;SDS011;5065;46.942;7.432;2024-03-17T15:01:50;1.83;;;1.23;;
10050;SDS011;5065;46.942;7.432;2024-03-17T15:04:18;1.90;;;0.90;;
10050;SDS011;5065;46.942;7.432;2024-03-17T15:06:45;3.60;;;0.97;;
10050;SDS011;5065;46.942;7.432;2024-03-17T15:09:12;1.07;;;0.80;;
10050;SDS011;5065;46.942;7.432;2024-03-17T15:11:44;1.47;;;0.70;;
10050;SDS011;5065;46.942;7.432;2024-03-17T15:14:11;1.07;;;0.87;;
10050;SDS011;5065;46.942;7.432;2024-03-17T15:16:44;2.57;;;0.83;;
10050;SDS011;5065;46.942;7.432;2024-03-17T15:19:41;4.43;;;0.77;;
10050;SDS011;5065;46.942;7.432;2024-03-17T15:22:14;3.33;;;1.10;;
10050;SDS011;5065;46.942;7.432;2024-03-17T15:24:41;1.00;;;0.73;;
10050;SDS011;5065;46.942;7.432;2024-03-17T15:27:08;2.63;;;1.20;;
10050;SDS011;5065;46.942;7.432;2024-03-17T15:29:36;5.13;;;0.87;;
10050;SDS011;5065;46.942;7.432;2024-03-17T15:32:03;1.67;;;1.10;;
10050;SDS011;5065;46.942;7.432;2024-03-17T15:34:30;2.40;;;1.00;;
10050;SDS011;5065;46.942;7.432;2024-03-17T15:37:00;2.40;;;0.83;;
10050;SDS011;5065;46.942;7.432;2024-03-17T15:39:27;2.97;;;0.80;;
10050;SDS011;5065;46.942;7.432;2024-03-17T15:41:55;3.83;;;1.53;;